sensor_id;sensor_type;location;lat;lon;timestamp;P1;durP1;ratioP1;P2;durP2;ratioP2
75506;SDS011;64086;43.220;27.878;2023-02-15T00:00:52;15.15;;;9.38;;
75506;SDS011;64086;43.220;27.878;2023-02-15T00:03:20;14.52;;;8.70;;
75506;SDS011;64086;43.220;27.878;2023-02-15T00:05:45;14.43;;;8.70;;
75506;SDS011;64086;43.220;27.878;2023-02-15T00:08:11;12.90;;;8.23;;
75506;SDS011;64086;43.220;27.878;2023-02-15T00:10:36;12.52;;;8.25;;
75506;SDS011;64086;43.220;27.878;2023-02-15T00:13:02;12.70;;;8.70;;
75506;SDS011;64086;43.220;27.878;2023-02-15T00:15:27;12.35;;;8.65;;
75506;SDS011;64086;43.220;27.878;2023-02-15T00:17:53;13.13;;;8.73;;
75506;SDS011;64086;43.220;27.878;2023-02-15T00:20:18;14.18;;;8.60;;
75506;SDS011;64086;43.220;27.878;2023-02-15T00:22:44;14.43;;;8.35;;
75506;SDS011;64086;43.220;27.878;2023-02-15T00:25:09;17.75;;;8.40;;
75506;SDS011;64086;43.220;27.878;2023-02-15T00:27:35;12.75;;;8.27;;
75506;SDS011;64086;43.220;27.878;2023-02-15T00:30:00;15.27;;;8.85;;
75506;SDS011;64086;43.220;27.878;2023-02-15T00:32:26;14.85;;;8.60;;
75506;SDS011;64086;43.220;27.878;2023-02-15T00:34:51;16.40;;;8.75;;
75506;SDS011;64086;43.220;27.878;2023-02-15T00:37:16;12.50;;;8.00;;
75506;SDS011;64086;43.220;27.878;2023-02-15T00:39:42;13.52;;;7.68;;
75506;SDS011;64086;43.220;27.878;2023-02-15T00:42:07;12.65;;;7.75;;
75506;SDS011;64086;43.220;27.878;2023-02-15T00:44:33;13.38;;;8.65;;
75506;SDS011;64086;43.220;27.878;2023-02-15T00:46:58;11.70;;;7.63;;
75506;SDS011;64086;43.220;27.878;2023-02-15T00:49:24;14.40;;;8.85;;
75506;SDS011;64086;43.220;27.878;2023-02-15T00:51:49;13.25;;;7.70;;
75506;SDS011;64086;43.220;27.878;2023-02-15T00:54:14;12.70;;;7.93;;
75506;SDS011;64086;43.220;27.878;2023-02-15T00:56:40;13.52;;;8.45;;
75506;SDS011;64086;43.220;27.878;2023-02-15T00:59:05;12.50;;;8.20;;
75506;SDS011;64086;43.220;27.878;2023-02-15T01:01:31;14.85;;;8.85;;
75506;SDS011;64086;43.220;27.878;2023-02-15T01:03:56;14.75;;;8.15;;
75506;SDS011;64086;43.220;27.878;2023-02-15T01:06:22;13.95;;;8.65;;
75506;SDS011;64086;43.220;27.878;2023-02-15T01:08:47;12.00;;;7.90;;
75506;SDS011;64086;43.220;27.878;2023-02-15T01:11:17;14.93;;;8.65;;
75506;SDS011;64086;43.220;27.878;2023-02-15T01:13:53;12.00;;;7.82;;
75506;SDS011;64086;43.220;27.878;2023-02-15T01:16:21;14.73;;;8.70;;
75506;SDS011;64086;43.220;27.878;2023-02-15T01:18:47;14.90;;;8.88;;
75506;SDS011;64086;43.220;27.878;2023-02-15T01:21:14;14.95;;;8.95;;
75506;SDS011;64086;43.220;27.878;2023-02-15T01:23:42;13.32;;;8.25;;
75506;SDS011;64086;43.220;27.878;2023-02-15T01:26:08;12.57;;;8.15;;
75506;SDS011;64086;43.220;27.878;2023-02-15T01:28:34;14.32;;;8.52;;
75506;SDS011;64086;43.220;27.878;2023-02-15T01:31:03;13.95;;;8.75;;
75506;SDS011;64086;43.220;27.878;2023-02-15T01:33:30;14.20;;;8.38;;
75506;SDS011;64086;43.220;27.878;2023-02-15T01:35:58;12.88;;;8.10;;
75506;SDS011;64086;43.220;27.878;2023-02-15T01:38:24;12.93;;;8.40;;
75506;SDS011;64086;43.220;27.878;2023-02-15T01:40:53;16.23;;;8.55;;
75506;SDS011;64086;43.220;27.878;2023-02-15T01:43:19;14.68;;;8.35;;
75506;SDS011;64086;43.220;27.878;2023-02-15T01:45:45;13.40;;;8.43;;
75506;SDS011;64086;43.220;27.878;2023-02-15T01:48:22;13.60;;;8.02;;
75506;SDS011;64086;43.220;27.878;2023-02-15T01:51:00;14.80;;;7.93;;
75506;SDS011;64086;43.220;27.878;2023-02-15T01:54:27;13.05;;;8.18;;
75506;SDS011;64086;43.220;27.878;2023-02-15T01:56:27;12.88;;;8.35;;
75506;SDS011;64086;43.220;27.878;2023-02-15T01:58:55;13.93;;;8.05;;
75506;SDS011;64086;43.220;27.878;2023-02-15T02:01:23;14.00;;;8.15;;
75506;SDS011;64086;43.220;27.878;2023-02-15T02:06:29;14.80;;;8.57;;
75506;SDS011;64086;43.220;27.878;2023-02-15T02:08:55;14.65;;;8.85;;
75506;SDS011;64086;43.220;27.878;2023-02-15T02:11:21;17.08;;;8.98;;
75506;SDS011;64086;43.220;27.878;2023-02-15T02:13:46;15.23;;;9.13;;
75506;SDS011;64086;43.220;27.878;2023-02-15T02:29:54;17.13;;;9.60;;
75506;SDS011;64086;43.220;27.878;2023-02-15T02:35:38;15.93;;;9.32;;
75506;SDS011;64086;43.220;27.878;2023-02-15T02:38:08;16.58;;;8.77;;
75506;SDS011;64086;43.220;27.878;2023-02-15T02:40:51;17.73;;;10.10;;
75506;SDS011;64086;43.220;27.878;2023-02-15T02:45:52;15.57;;;9.50;;
75506;SDS011;64086;43.220;27.878;2023-02-15T02:48:21;15.13;;;9.55;;
75506;SDS011;64086;43.220;27.878;2023-02-15T02:50:49;15.50;;;9.52;;
75506;SDS011;64086;43.220;27.878;2023-02-15T02:53:15;16.90;;;10.43;;
75506;SDS011;64086;43.220;27.878;2023-02-15T03:00:47;17.08;;;10.10;;
75506;SDS011;64086;43.220;27.878;2023-02-15T03:03:36;17.27;;;9.82;;
75506;SDS011;64086;43.220;27.878;2023-02-15T03:06:04;15.90;;;9.80;;
75506;SDS011;64086;43.220;27.878;2023-02-15T03:08:35;16.45;;;10.07;;
75506;SDS011;64086;43.220;27.878;2023-02-15T03:11:04;15.98;;;9.70;;
75506;SDS011;64086;43.220;27.878;2023-02-15T03:13:29;16.80;;;9.98;;
75506;SDS011;64086;43.220;27.878;2023-02-15T03:15:55;15.07;;;9.80;;
75506;SDS011;64086;43.220;27.878;2023-02-15T03:18:45;16.70;;;9.70;;
75506;SDS011;64086;43.220;27.878;2023-02-15T03:21:19;15.77;;;9.18;;
75506;SDS011;64086;43.220;27.878;2023-02-15T03:23:52;16.85;;;9.48;;
75506;SDS011;64086;43.220;27.878;2023-02-15T03:26:21;14.35;;;8.48;;
75506;SDS011;64086;43.220;27.878;2023-02-15T03:28:48;15.27;;;9.27;;
75506;SDS011;64086;43.220;27.878;2023-02-15T03:31:16;14.35;;;8.30;;
75506;SDS011;64086;43.220;27.878;2023-02-15T03:33:53;13.65;;;7.97;;
75506;SDS011;64086;43.220;27.878;2023-02-15T03:39:07;13.65;;;8.20;;
75506;SDS011;64086;43.220;27.878;2023-02-15T03:47:02;12.50;;;7.47;;
75506;SDS011;64086;43.220;27.878;2023-02-15T03:49:34;14.45;;;8.95;;
75506;SDS011;64086;43.220;27.878;2023-02-15T03:52:01;13.43;;;8.40;;
75506;SDS011;64086;43.220;27.878;2023-02-15T03:54:28;15.55;;;9.13;;
75506;SDS011;64086;43.220;27.878;2023-02-15T03:57:09;14.27;;;8.15;;
75506;SDS011;64086;43.220;27.878;2023-02-15T04:00:05;12.70;;;7.90;;
75506;SDS011;64086;43.220;27.878;2023-02-15T04:05:31;13.52;;;7.82;;
75506;SDS011;64086;43.220;27.878;2023-02-15T04:07:56;13.13;;;8.32;;
75506;SDS011;64086;43.220;27.878;2023-02-15T04:10:22;12.05;;;7.45;;
75506;SDS011;64086;43.220;27.878;2023-02-15T04:13:06;15.30;;;7.50;;
75506;SDS011;64086;43.220;27.878;2023-02-15T04:15:31;12.13;;;8.00;;
75506;SDS011;64086;43.220;27.878;2023-02-15T04:18:15;14.07;;;8.20;;
75506;SDS011;64086;43.220;27.878;2023-02-15T04:20:43;13.95;;;8.00;;
75506;SDS011;64086;43.220;27.878;2023-02-15T04:23:27;14.68;;;8.35;;
75506;SDS011;64086;43.220;27.878;2023-02-15T04:28:37;13.32;;;6.95;;
75506;SDS011;64086;43.220;27.878;2023-02-15T04:31:02;14.13;;;8.57;;
75506;SDS011;64086;43.220;27.878;2023-02-15T04:33:27;13.50;;;7.93;;
75506;SDS011;64086;43.220;27.878;2023-02-15T04:35:53;13.77;;;7.72;;
75506;SDS011;64086;43.220;27.878;2023-02-15T04:38:18;14.93;;;7.80;;
75506;SDS011;64086;43.220;27.878;2023-02-15T04:40:44;14.63;;;8.38;;
75506;SDS011;64086;43.220;27.878;2023-02-15T04:43:09;14.45;;;7.85;;
75506;SDS011;64086;43.220;27.878;2023-02-15T04:45:35;13.35;;;7.68;;
75506;SDS011;64086;43.220;27.878;2023-02-15T04:48:00;13.13;;;7.97;;
75506;SDS011;64086;43.220;27.878;2023-02-15T04:50:26;15.07;;;8.18;;
75506;SDS011;64086;43.220;27.878;2023-02-15T04:52:51;15.40;;;8.10;;
75506;SDS011;64086;43.220;27.878;2023-02-15T04:55:16;12.48;;;7.75;;
75506;SDS011;64086;43.220;27.878;2023-02-15T04:57:42;12.73;;;7.60;;
75506;SDS011;64086;43.220;27.878;2023-02-15T05:00:07;16.15;;;8.45;;
75506;SDS011;64086;43.220;27.878;2023-02-15T05:02:34;18.92;;;10.32;;
75506;SDS011;64086;43.220;27.878;2023-02-15T05:04:59;18.35;;;11.02;;
75506;SDS011;64086;43.220;27.878;2023-02-15T05:07:24;19.92;;;11.00;;
75506;SDS011;64086;43.220;27.878;2023-02-15T05:09:50;15.68;;;9.23;;
75506;SDS011;64086;43.220;27.878;2023-02-15T05:12:15;13.52;;;8.60;;
75506;SDS011;64086;43.220;27.878;2023-02-15T05:14:41;13.15;;;8.05;;
75506;SDS011;64086;43.220;27.878;2023-02-15T05:17:06;13.32;;;7.78;;
75506;SDS011;64086;43.220;27.878;2023-02-15T05:19:32;13.27;;;7.65;;
75506;SDS011;64086;43.220;27.878;2023-02-15T05:21:57;12.38;;;6.82;;
75506;SDS011;64086;43.220;27.878;2023-02-15T05:24:23;13.55;;;7.40;;
75506;SDS011;64086;43.220;27.878;2023-02-15T05:27:07;12.98;;;7.43;;
75506;SDS011;64086;43.220;27.878;2023-02-15T05:29:54;11.85;;;7.20;;
75506;SDS011;64086;43.220;27.878;2023-02-15T05:32:20;12.77;;;7.55;;
75506;SDS011;64086;43.220;27.878;2023-02-15T05:34:45;15.40;;;7.65;;
75506;SDS011;64086;43.220;27.878;2023-02-15T05:37:11;13.07;;;7.45;;
75506;SDS011;64086;43.220;27.878;2023-02-15T05:39:36;16.23;;;7.47;;
75506;SDS011;64086;43.220;27.878;2023-02-15T05:42:02;11.52;;;7.63;;
75506;SDS011;64086;43.220;27.878;2023-02-15T05:44:27;11.70;;;7.63;;
75506;SDS011;64086;43.220;27.878;2023-02-15T05:46:53;13.10;;;7.68;;
75506;SDS011;64086;43.220;27.878;2023-02-15T05:49:18;12.07;;;7.57;;
75506;SDS011;64086;43.220;27.878;2023-02-15T05:51:43;14.00;;;8.07;;
75506;SDS011;64086;43.220;27.878;2023-02-15T05:54:09;13.02;;;7.85;;
75506;SDS011;64086;43.220;27.878;2023-02-15T05:56:34;12.05;;;7.38;;
75506;SDS011;64086;43.220;27.878;2023-02-15T05:59:00;11.32;;;7.63;;
75506;SDS011;64086;43.220;27.878;2023-02-15T06:01:25;13.50;;;7.95;;
75506;SDS011;64086;43.220;27.878;2023-02-15T06:03:51;10.30;;;7.50;;
75506;SDS011;64086;43.220;27.878;2023-02-15T06:06:17;12.43;;;7.78;;
75506;SDS011;64086;43.220;27.878;2023-02-15T06:08:42;12.52;;;7.75;;
75506;SDS011;64086;43.220;27.878;2023-02-15T06:11:08;13.40;;;7.93;;
75506;SDS011;64086;43.220;27.878;2023-02-15T06:13:34;14.27;;;8.70;;
75506;SDS011;64086;43.220;27.878;2023-02-15T06:16:00;15.98;;;9.32;;
75506;SDS011;64086;43.220;27.878;2023-02-15T06:18:25;12.13;;;8.52;;
75506;SDS011;64086;43.220;27.878;2023-02-15T06:20:51;12.35;;;7.95;;
75506;SDS011;64086;43.220;27.878;2023-02-15T06:23:16;16.92;;;8.60;;
75506;SDS011;64086;43.220;27.878;2023-02-15T06:25:43;13.38;;;8.80;;
75506;SDS011;64086;43.220;27.878;2023-02-15T06:28:10;13.32;;;8.73;;
75506;SDS011;64086;43.220;27.878;2023-02-15T06:30:36;12.43;;;9.23;;
75506;SDS011;64086;43.220;27.878;2023-02-15T06:33:01;13.80;;;8.57;;
75506;SDS011;64086;43.220;27.878;2023-02-15T06:35:26;13.02;;;8.60;;
75506;SDS011;64086;43.220;27.878;2023-02-15T06:37:52;12.85;;;8.65;;
75506;SDS011;64086;43.220;27.878;2023-02-15T06:40:17;13.88;;;8.13;;
75506;SDS011;64086;43.220;27.878;2023-02-15T06:42:43;16.13;;;9.00;;
75506;SDS011;64086;43.220;27.878;2023-02-15T06:45:09;14.80;;;8.35;;
75506;SDS011;64086;43.220;27.878;2023-02-15T06:47:35;13.55;;;8.30;;
75506;SDS011;64086;43.220;27.878;2023-02-15T06:50:02;14.25;;;8.30;;
75506;SDS011;64086;43.220;27.878;2023-02-15T06:52:28;10.80;;;7.72;;
75506;SDS011;64086;43.220;27.878;2023-02-15T06:54:54;12.40;;;8.15;;
75506;SDS011;64086;43.220;27.878;2023-02-15T06:57:20;13.25;;;8.38;;
75506;SDS011;64086;43.220;27.878;2023-02-15T06:59:45;12.23;;;8.05;;
75506;SDS011;64086;43.220;27.878;2023-02-15T07:02:11;11.25;;;7.53;;
75506;SDS011;64086;43.220;27.878;2023-02-15T07:04:37;10.40;;;7.45;;
75506;SDS011;64086;43.220;27.878;2023-02-15T07:07:03;11.10;;;7.43;;
75506;SDS011;64086;43.220;27.878;2023-02-15T07:09:28;12.07;;;7.93;;
75506;SDS011;64086;43.220;27.878;2023-02-15T07:11:54;11.35;;;7.47;;
75506;SDS011;64086;43.220;27.878;2023-02-15T07:14:38;10.77;;;7.10;;
75506;SDS011;64086;43.220;27.878;2023-02-15T07:17:05;11.38;;;7.60;;
75506;SDS011;64086;43.220;27.878;2023-02-15T07:19:31;12.90;;;7.20;;
75506;SDS011;64086;43.220;27.878;2023-02-15T07:21:56;11.30;;;7.18;;
75506;SDS011;64086;43.220;27.878;2023-02-15T07:24:22;12.23;;;7.47;;
75506;SDS011;64086;43.220;27.878;2023-02-15T07:26:47;13.73;;;7.88;;
75506;SDS011;64086;43.220;27.878;2023-02-15T07:29:12;12.77;;;8.07;;
75506;SDS011;64086;43.220;27.878;2023-02-15T07:31:38;12.48;;;7.00;;
75506;SDS011;64086;43.220;27.878;2023-02-15T07:34:05;11.18;;;7.07;;
75506;SDS011;64086;43.220;27.878;2023-02-15T07:36:31;11.25;;;7.50;;
75506;SDS011;64086;43.220;27.878;2023-02-15T07:38:57;10.82;;;7.18;;
75506;SDS011;64086;43.220;27.878;2023-02-15T07:41:23;11.57;;;7.40;;
75506;SDS011;64086;43.220;27.878;2023-02-15T07:43:48;12.25;;;7.13;;
75506;SDS011;64086;43.220;27.878;2023-02-15T07:46:15;12.27;;;7.63;;
75506;SDS011;64086;43.220;27.878;2023-02-15T07:48:42;9.93;;;6.80;;
75506;SDS011;64086;43.220;27.878;2023-02-15T07:51:08;14.13;;;8.02;;
75506;SDS011;64086;43.220;27.878;2023-02-15T07:53:35;13.00;;;8.18;;
75506;SDS011;64086;43.220;27.878;2023-02-15T07:56:01;11.38;;;8.27;;
75506;SDS011;64086;43.220;27.878;2023-02-15T07:58:27;12.65;;;8.00;;
75506;SDS011;64086;43.220;27.878;2023-02-15T08:01:11;8.75;;;7.15;;
75506;SDS011;64086;43.220;27.878;2023-02-15T08:03:37;11.07;;;7.80;;
75506;SDS011;64086;43.220;27.878;2023-02-15T08:06:02;11.27;;;7.65;;
75506;SDS011;64086;43.220;27.878;2023-02-15T08:08:28;12.35;;;7.80;;
75506;SDS011;64086;43.220;27.878;2023-02-15T08:13:59;11.50;;;7.45;;
75506;SDS011;64086;43.220;27.878;2023-02-15T08:16:40;9.65;;;7.35;;
75506;SDS011;64086;43.220;27.878;2023-02-15T08:21:33;10.73;;;7.78;;
75506;SDS011;64086;43.220;27.878;2023-02-15T08:23:59;13.27;;;8.15;;
75506;SDS011;64086;43.220;27.878;2023-02-15T08:26:26;12.35;;;7.10;;
75506;SDS011;64086;43.220;27.878;2023-02-15T08:28:52;12.38;;;7.05;;
75506;SDS011;64086;43.220;27.878;2023-02-15T08:31:18;10.10;;;7.35;;
75506;SDS011;64086;43.220;27.878;2023-02-15T08:33:44;10.40;;;7.50;;
75506;SDS011;64086;43.220;27.878;2023-02-15T08:36:12;10.98;;;7.72;;
75506;SDS011;64086;43.220;27.878;2023-02-15T08:38:39;11.65;;;7.28;;
75506;SDS011;64086;43.220;27.878;2023-02-15T08:41:21;11.23;;;7.20;;
75506;SDS011;64086;43.220;27.878;2023-02-15T08:43:52;12.35;;;7.85;;
75506;SDS011;64086;43.220;27.878;2023-02-15T08:46:22;10.30;;;7.53;;
75506;SDS011;64086;43.220;27.878;2023-02-15T08:48:49;10.40;;;6.95;;
75506;SDS011;64086;43.220;27.878;2023-02-15T08:51:16;10.40;;;7.57;;
75506;SDS011;64086;43.220;27.878;2023-02-15T08:53:46;13.13;;;7.53;;
75506;SDS011;64086;43.220;27.878;2023-02-15T08:56:16;13.82;;;7.55;;
75506;SDS011;64086;43.220;27.878;2023-02-15T08:58:42;10.27;;;6.47;;
75506;SDS011;64086;43.220;27.878;2023-02-15T09:01:12;8.98;;;6.82;;
75506;SDS011;64086;43.220;27.878;2023-02-15T09:03:42;9.05;;;6.82;;
75506;SDS011;64086;43.220;27.878;2023-02-15T09:06:08;9.88;;;7.13;;
75506;SDS011;64086;43.220;27.878;2023-02-15T09:08:34;9.98;;;7.18;;
75506;SDS011;64086;43.220;27.878;2023-02-15T09:11:09;11.75;;;7.50;;
75506;SDS011;64086;43.220;27.878;2023-02-15T09:13:37;9.50;;;6.57;;
75506;SDS011;64086;43.220;27.878;2023-02-15T09:16:04;10.95;;;7.05;;
75506;SDS011;64086;43.220;27.878;2023-02-15T09:18:32;11.07;;;7.30;;
75506;SDS011;64086;43.220;27.878;2023-02-15T09:21:07;9.73;;;7.32;;
75506;SDS011;64086;43.220;27.878;2023-02-15T09:23:35;9.95;;;7.47;;
75506;SDS011;64086;43.220;27.878;2023-02-15T09:26:04;9.38;;;6.65;;
75506;SDS011;64086;43.220;27.878;2023-02-15T09:28:31;11.23;;;7.32;;
75506;SDS011;64086;43.220;27.878;2023-02-15T09:31:04;9.73;;;6.75;;
75506;SDS011;64086;43.220;27.878;2023-02-15T09:33:40;10.60;;;7.15;;
75506;SDS011;64086;43.220;27.878;2023-02-15T09:36:13;12.77;;;6.60;;
75506;SDS011;64086;43.220;27.878;2023-02-15T09:38:40;8.65;;;6.50;;
75506;SDS011;64086;43.220;27.878;2023-02-15T09:47:03;9.35;;;6.05;;
75506;SDS011;64086;43.220;27.878;2023-02-15T09:49:49;10.48;;;6.95;;
75506;SDS011;64086;43.220;27.878;2023-02-15T10:04:09;10.38;;;6.65;;
75506;SDS011;64086;43.220;27.878;2023-02-15T10:12:06;11.88;;;7.53;;
75506;SDS011;64086;43.220;27.878;2023-02-15T10:17:14;11.43;;;7.20;;
75506;SDS011;64086;43.220;27.878;2023-02-15T10:23:34;10.90;;;7.18;;
75506;SDS011;64086;43.220;27.878;2023-02-15T10:31:26;11.27;;;7.53;;
75506;SDS011;64086;43.220;27.878;2023-02-15T10:39:48;10.27;;;7.57;;
75506;SDS011;64086;43.220;27.878;2023-02-15T10:50:48;13.40;;;8.25;;
75506;SDS011;64086;43.220;27.878;2023-02-15T11:01:18;10.30;;;7.47;;
75506;SDS011;64086;43.220;27.878;2023-02-15T11:06:41;11.77;;;7.95;;
75506;SDS011;64086;43.220;27.878;2023-02-15T11:09:13;12.45;;;8.75;;
75506;SDS011;64086;43.220;27.878;2023-02-15T11:11:42;13.30;;;8.25;;
75506;SDS011;64086;43.220;27.878;2023-02-15T11:14:17;10.98;;;8.32;;
75506;SDS011;64086;43.220;27.878;2023-02-15T11:16:57;12.55;;;8.63;;
75506;SDS011;64086;43.220;27.878;2023-02-15T11:19:34;12.25;;;8.57;;
75506;SDS011;64086;43.220;27.878;2023-02-15T11:22:02;12.20;;;8.68;;
75506;SDS011;64086;43.220;27.878;2023-02-15T11:24:29;13.32;;;8.82;;
75506;SDS011;64086;43.220;27.878;2023-02-15T11:27:17;11.98;;;9.05;;
75506;SDS011;64086;43.220;27.878;2023-02-15T11:30:05;11.45;;;9.07;;
75506;SDS011;64086;43.220;27.878;2023-02-15T11:32:40;11.35;;;8.50;;
75506;SDS011;64086;43.220;27.878;2023-02-15T11:43:18;14.40;;;9.15;;
75506;SDS011;64086;43.220;27.878;2023-02-15T11:45:49;13.88;;;9.20;;
75506;SDS011;64086;43.220;27.878;2023-02-15T11:48:14;13.55;;;9.52;;
75506;SDS011;64086;43.220;27.878;2023-02-15T11:50:41;12.75;;;9.13;;
75506;SDS011;64086;43.220;27.878;2023-02-15T11:53:14;13.80;;;9.18;;
75506;SDS011;64086;43.220;27.878;2023-02-15T11:55:52;13.65;;;9.10;;
75506;SDS011;64086;43.220;27.878;2023-02-15T12:00:51;13.05;;;9.43;;
75506;SDS011;64086;43.220;27.878;2023-02-15T12:03:22;11.90;;;8.90;;
75506;SDS011;64086;43.220;27.878;2023-02-15T12:05:57;12.27;;;8.52;;
75506;SDS011;64086;43.220;27.878;2023-02-15T12:08:26;12.90;;;9.38;;
75506;SDS011;64086;43.220;27.878;2023-02-15T12:13:44;12.20;;;8.90;;
75506;SDS011;64086;43.220;27.878;2023-02-15T12:19:10;12.23;;;8.30;;
75506;SDS011;64086;43.220;27.878;2023-02-15T12:21:42;12.77;;;8.60;;
75506;SDS011;64086;43.220;27.878;2023-02-15T12:27:47;12.75;;;8.55;;
75506;SDS011;64086;43.220;27.878;2023-02-15T12:30:01;13.18;;;9.13;;
75506;SDS011;64086;43.220;27.878;2023-02-15T12:41:00;14.05;;;8.52;;
75506;SDS011;64086;43.220;27.878;2023-02-15T12:43:35;12.63;;;8.75;;
75506;SDS011;64086;43.220;27.878;2023-02-15T12:48:49;12.43;;;9.27;;
75506;SDS011;64086;43.220;27.878;2023-02-15T12:51:31;12.82;;;9.48;;
75506;SDS011;64086;43.220;27.878;2023-02-15T12:54:17;14.32;;;9.60;;
75506;SDS011;64086;43.220;27.878;2023-02-15T12:56:47;12.95;;;9.45;;
75506;SDS011;64086;43.220;27.878;2023-02-15T12:59:13;11.50;;;9.25;;
75506;SDS011;64086;43.220;27.878;2023-02-15T13:01:40;12.80;;;9.75;;
75506;SDS011;64086;43.220;27.878;2023-02-15T13:07:01;13.10;;;9.45;;
75506;SDS011;64086;43.220;27.878;2023-02-15T13:11:56;13.52;;;10.05;;
75506;SDS011;64086;43.220;27.878;2023-02-15T13:14:30;16.67;;;10.30;;
75506;SDS011;64086;43.220;27.878;2023-02-15T13:16:58;14.52;;;9.57;;
75506;SDS011;64086;43.220;27.878;2023-02-15T13:19:28;12.25;;;9.02;;
75506;SDS011;64086;43.220;27.878;2023-02-15T13:21:58;13.38;;;9.52;;
75506;SDS011;64086;43.220;27.878;2023-02-15T13:24:39;14.40;;;10.30;;
75506;SDS011;64086;43.220;27.878;2023-02-15T13:27:07;14.93;;;10.40;;
75506;SDS011;64086;43.220;27.878;2023-02-15T13:29:38;13.95;;;9.32;;
75506;SDS011;64086;43.220;27.878;2023-02-15T13:32:10;12.18;;;9.57;;
75506;SDS011;64086;43.220;27.878;2023-02-15T13:34:39;14.68;;;9.48;;
75506;SDS011;64086;43.220;27.878;2023-02-15T13:37:12;13.93;;;9.98;;
75506;SDS011;64086;43.220;27.878;2023-02-15T13:40:00;13.65;;;9.63;;
75506;SDS011;64086;43.220;27.878;2023-02-15T13:45:39;14.20;;;9.68;;
75506;SDS011;64086;43.220;27.878;2023-02-15T14:15:58;12.43;;;9.27;;
75506;SDS011;64086;43.220;27.878;2023-02-15T14:18:51;12.38;;;8.80;;
75506;SDS011;64086;43.220;27.878;2023-02-15T14:21:21;12.82;;;9.07;;
75506;SDS011;64086;43.220;27.878;2023-02-15T14:32:00;13.27;;;9.30;;
75506;SDS011;64086;43.220;27.878;2023-02-15T14:37:16;10.75;;;8.43;;
75506;SDS011;64086;43.220;27.878;2023-02-15T14:42:37;11.73;;;7.90;;
75506;SDS011;64086;43.220;27.878;2023-02-15T14:45:13;11.82;;;8.32;;
75506;SDS011;64086;43.220;27.878;2023-02-15T14:47:42;11.10;;;8.23;;
75506;SDS011;64086;43.220;27.878;2023-02-15T14:56:14;10.20;;;7.53;;
75506;SDS011;64086;43.220;27.878;2023-02-15T15:01:14;12.70;;;8.77;;
75506;SDS011;64086;43.220;27.878;2023-02-15T15:03:44;15.25;;;9.05;;
75506;SDS011;64086;43.220;27.878;2023-02-15T15:06:31;11.88;;;7.93;;
75506;SDS011;64086;43.220;27.878;2023-02-15T15:09:09;11.05;;;8.32;;
75506;SDS011;64086;43.220;27.878;2023-02-15T15:11:47;11.88;;;8.38;;
75506;SDS011;64086;43.220;27.878;2023-02-15T15:17:01;11.40;;;8.02;;
75506;SDS011;64086;43.220;27.878;2023-02-15T15:25:11;12.63;;;7.90;;
75506;SDS011;64086;43.220;27.878;2023-02-15T15:28:00;12.65;;;8.43;;
75506;SDS011;64086;43.220;27.878;2023-02-15T15:48:46;16.90;;;10.15;;
75506;SDS011;64086;43.220;27.878;2023-02-15T15:51:17;13.70;;;9.75;;
75506;SDS011;64086;43.220;27.878;2023-02-15T15:53:49;17.48;;;10.52;;
75506;SDS011;64086;43.220;27.878;2023-02-15T15:56:19;14.70;;;10.38;;
75506;SDS011;64086;43.220;27.878;2023-02-15T15:58:49;16.42;;;11.07;;
75506;SDS011;64086;43.220;27.878;2023-02-15T16:01:21;16.33;;;11.20;;
75506;SDS011;64086;43.220;27.878;2023-02-15T16:06:38;15.57;;;10.88;;
75506;SDS011;64086;43.220;27.878;2023-02-15T16:09:38;16.48;;;10.52;;
75506;SDS011;64086;43.220;27.878;2023-02-15T16:11:56;21.80;;;12.93;;
75506;SDS011;64086;43.220;27.878;2023-02-15T16:14:36;22.88;;;14.25;;
75506;SDS011;64086;43.220;27.878;2023-02-15T16:17:06;18.60;;;12.70;;
75506;SDS011;64086;43.220;27.878;2023-02-15T16:19:34;17.20;;;11.70;;
75506;SDS011;64086;43.220;27.878;2023-02-15T16:22:02;19.02;;;12.70;;
75506;SDS011;64086;43.220;27.878;2023-02-15T16:27:54;18.52;;;12.85;;
75506;SDS011;64086;43.220;27.878;2023-02-15T16:30:21;19.52;;;13.60;;
75506;SDS011;64086;43.220;27.878;2023-02-15T16:33:04;16.13;;;11.73;;
75506;SDS011;64086;43.220;27.878;2023-02-15T16:35:35;17.73;;;11.68;;
75506;SDS011;64086;43.220;27.878;2023-02-15T16:38:02;17.13;;;11.25;;
75506;SDS011;64086;43.220;27.878;2023-02-15T16:43:06;16.05;;;10.80;;
75506;SDS011;64086;43.220;27.878;2023-02-15T16:45:38;16.83;;;10.75;;
75506;SDS011;64086;43.220;27.878;2023-02-15T16:48:05;16.98;;;12.07;;
75506;SDS011;64086;43.220;27.878;2023-02-15T16:50:34;17.77;;;12.07;;
75506;SDS011;64086;43.220;27.878;2023-02-15T16:53:01;18.52;;;12.90;;
75506;SDS011;64086;43.220;27.878;2023-02-15T16:55:28;19.77;;;14.40;;
75506;SDS011;64086;43.220;27.878;2023-02-15T16:58:01;20.95;;;14.52;;
75506;SDS011;64086;43.220;27.878;2023-02-15T17:00:30;22.08;;;14.02;;
75506;SDS011;64086;43.220;27.878;2023-02-15T17:03:00;21.50;;;14.63;;
75506;SDS011;64086;43.220;27.878;2023-02-15T17:05:32;24.98;;;15.85;;
75506;SDS011;64086;43.220;27.878;2023-02-15T17:08:13;22.10;;;15.85;;
75506;SDS011;64086;43.220;27.878;2023-02-15T17:13:25;23.33;;;16.48;;
75506;SDS011;64086;43.220;27.878;2023-02-15T17:18:23;26.65;;;17.40;;
75506;SDS011;64086;43.220;27.878;2023-02-15T17:20:50;26.85;;;15.85;;
75506;SDS011;64086;43.220;27.878;2023-02-15T17:24:02;23.13;;;15.02;;
75506;SDS011;64086;43.220;27.878;2023-02-15T17:28:37;24.63;;;16.02;;
75506;SDS011;64086;43.220;27.878;2023-02-15T17:31:06;24.60;;;15.32;;
75506;SDS011;64086;43.220;27.878;2023-02-15T17:38:31;29.13;;;17.70;;
75506;SDS011;64086;43.220;27.878;2023-02-15T17:40:57;28.90;;;17.27;;
75506;SDS011;64086;43.220;27.878;2023-02-15T17:43:23;26.15;;;16.70;;
75506;SDS011;64086;43.220;27.878;2023-02-15T17:45:50;26.15;;;16.52;;
75506;SDS011;64086;43.220;27.878;2023-02-15T17:48:19;25.13;;;16.40;;
75506;SDS011;64086;43.220;27.878;2023-02-15T17:50:54;26.92;;;15.05;;
75506;SDS011;64086;43.220;27.878;2023-02-15T17:53:20;29.65;;;17.63;;
75506;SDS011;64086;43.220;27.878;2023-02-15T17:55:45;26.52;;;17.00;;
75506;SDS011;64086;43.220;27.878;2023-02-15T17:58:15;23.75;;;15.43;;
75506;SDS011;64086;43.220;27.878;2023-02-15T18:00:48;22.63;;;14.60;;
75506;SDS011;64086;43.220;27.878;2023-02-15T18:06:30;28.98;;;17.95;;
75506;SDS011;64086;43.220;27.878;2023-02-15T18:09:16;25.63;;;18.00;;
75506;SDS011;64086;43.220;27.878;2023-02-15T18:12:02;27.58;;;17.70;;
75506;SDS011;64086;43.220;27.878;2023-02-15T18:14:31;34.55;;;20.63;;
75506;SDS011;64086;43.220;27.878;2023-02-15T18:16:56;35.38;;;20.33;;
75506;SDS011;64086;43.220;27.878;2023-02-15T18:19:25;29.60;;;18.17;;
75506;SDS011;64086;43.220;27.878;2023-02-15T18:21:51;29.00;;;18.60;;
75506;SDS011;64086;43.220;27.878;2023-02-15T18:24:21;32.55;;;19.88;;
75506;SDS011;64086;43.220;27.878;2023-02-15T18:26:48;34.38;;;20.90;;
75506;SDS011;64086;43.220;27.878;2023-02-15T18:29:14;30.02;;;19.67;;
75506;SDS011;64086;43.220;27.878;2023-02-15T18:31:40;33.40;;;19.38;;
75506;SDS011;64086;43.220;27.878;2023-02-15T18:34:08;28.33;;;18.85;;
75506;SDS011;64086;43.220;27.878;2023-02-15T18:36:57;30.33;;;19.50;;
75506;SDS011;64086;43.220;27.878;2023-02-15T18:39:32;32.42;;;20.70;;